Carlsbad Caverns National Park, NM

2:32 PM MDT on July 28, 2014 (GMT -0600)
KNMCARLS3 Elev 3158 ft | 32.43 °N, 104.25 °W | Change Station

Current weather conditions updated 4 minutes ago

Clear
Clear
93.1 °F
Feels Like 94 °F
N
0.0
Wind Variable Wind from ENE
Gusts 7.0 mph

Today is forecast to be Cooler than yesterday.

Today
High -- | Low -- °F
--% Chance of Precip.
Yesterday
High -- | Low -- °F
Precip. -- in
6:08 AM 7:57 PM
Waxing Crescent, 3% visible
Pressure 30.00 in
Visibility 10.0 miles
Clouds Clear
Heat Index 94 °F
Dew Point 62 °F
Humidity 35%
Rainfall 0.00 in
Snow Depth Not available.
UV 12 out of 12
Pollen 5.00 out of 12
Air Quality Not available.
Flu Activity Not available.
METAR KCNM 281953Z AUTO 08008G16KT 10SM CLR 34/13 A3020 RMK AO2 SLP159 T03440128

More Conditions Fewer Conditions

Pressure 30.00 in
Visibility 10.0 miles
Clouds Clear
Heat Index 94 °F
Dew Point 62 °F
Humidity 35%
Rainfall 0.00 in
Snow Depth Not available.
UV 12 out of 12
Pollen 5.00 out of 12
Air Quality Not available.
Flu Activity Not available.
METAR KCNM 281953Z AUTO 08008G16KT 10SM CLR 34/13 A3020 RMK AO2 SLP159 T03440128

More Conditions Fewer Conditions

10-Day Weather Forecast

Almanac

Astronomy

Jul. 28, 2014 Rise Set
Actual Time 6:08 AM MDT 7:57 PM MDT
Civil Twilight 5:41 AM MDT 8:24 PM MDT
Nautical Twilight 5:09 AM MDT 8:57 PM MDT
Astronomical Twilight 4:34 AM MDT 9:31 PM MDT
Moon 7:43 AM MDT 8:51 PM MDT
Length of Visible Light 14h 42m
Length of Day
13h 48m
Tomorrow will be 1m 24s shorter.
Waxing Crescent, 3% of the Moon is Illuminated
Today
Waxing Crescent
Aug 3
First Quarter
Aug 10
Full
Aug 17
Last Quarter
Aug 25
New

Today's Extremes

State Highs State Lows

Community

WunderPhotos

Upload Photos

1,738,489 photos uploaded!

Nearby

Snow Depth

Station Depth Elevation
Sierra Blanca 1 in 10280 ft
Wesner Springs 2 in 11120 ft
Elk Cabin 142 in 8210 ft
Silver Creek Divide 0 in 9000 ft
Gallegos Peak 0 in 9800 ft

Earthquake Activity

City Distance Mag. Time & Date
No recent earthquake activity has been reported nearby.
Minimum magnitude displayed is 2.5.

Coastal Water Temperatures

Place Temperature
No Stations Reporting

Nearby Weather Stations

Station Location Temp. Heat Index Dew Point Humidity Wind Precip. Elev Updated Type
Carlsbad, NM 93.1 °F 94 °F 62 °F 35% ENE  at  0.0 mph 0.00 in / hr 3158 ft 2:28 PM MDT Normal
Ridgecrest Subdivision, Carlsbad, NM 90.0 °F 88 °F 55 °F 31% East  at  12.0 mph 0.00 in / hr 3200 ft 2:32 PM MDT Rapid Fire
RAWS BATDRAW NM, Whites City, NM 84 °F 83 °F 54 °F 36% North  at  16 mph 0.00 in / hr 4424 ft 12:52 PM MDT MADIS

Show More Stations Show Fewer Stations